Terminal Aerodrome Forecast
Issued by NWS

Home | Current Version | Previous Version | Text Only | Print | Product List | Glossary On
Versions: 1 2 3 4 5 6 7 8 9 10 11 12 13 14 15 16 17 18 19 20 21 22 23 24 25 26 27 28 29
000
FTUS43 KDTX 182300
TAFYIP
TAF
KYIP 182324Z 1900/1924 05007KT P6SM SCT045
      TEMPO 1900/1902 BKN045
     FM190400 04003KT P6SM SCT035
     FM191500 14007KT P6SM SKC=

USA.gov is the U.S. government's official web portal to all federal, state and local government web resources and services.